TimeCST,TemperatureF,Dew PointF,Humidity,Sea Level PressureIn,VisibilityMPH,Wind Direction,Wind SpeedMPH,Gust SpeedMPH,PrecipitationIn,Events,Conditions,WindDirDegrees,DateUTC
12:53 AM,30.0,26.1,85,30.17,7.0,NNW,9.2,-,N/A,,Overcast,340,2013-03-02 06:53:00
1:33 AM,30.2,26.6,86,30.16,9.0,NNW,8.1,-,N/A,,Overcast,330,2013-03-02 07:33:00
1:49 AM,30.2,26.6,86,30.16,10.0,NNW,9.2,-,N/A,,Overcast,340,2013-03-02 07:49:00
1:53 AM,30.0,26.1,85,30.17,10.0,NNW,11.5,-,N/A,,Overcast,340,2013-03-02 07:53:00
2:53 AM,30.0,26.1,85,30.15,5.0,NNW,12.7,-,0.00,Snow,Light Snow,340,2013-03-02 08:53:00
3:53 AM,30.0,25.0,82,30.15,5.0,North,10.4,-,0.00,Snow,Light Snow,350,2013-03-02 09:53:00
4:53 AM,30.0,24.1,79,30.16,10.0,North,13.8,-,0.00,,Overcast,350,2013-03-02 10:53:00
5:53 AM,30.0,24.1,79,30.17,10.0,NNW,12.7,-,N/A,,Overcast,340,2013-03-02 11:53:00
6:53 AM,30.0,24.1,79,30.19,10.0,NNW,10.4,-,N/A,,Overcast,340,2013-03-02 12:53:00
7:53 AM,30.0,23.0,75,30.21,10.0,NNW,13.8,20.7,N/A,,Overcast,340,2013-03-02 13:53:00
8:53 AM,30.0,23.0,75,30.22,10.0,North,16.1,24.2,N/A,,Overcast,350,2013-03-02 14:53:00
9:39 AM,30.2,24.8,80,30.22,10.0,NNW,18.4,28.8,N/A,,Overcast,330,2013-03-02 15:39:00
9:53 AM,30.9,24.1,76,30.23,8.0,NNW,18.4,-,0.00,Snow,Light Snow,340,2013-03-02 15:53:00
10:53 AM,30.9,24.1,76,30.24,5.0,NNW,16.1,-,0.00,Snow,Light Snow,340,2013-03-02 16:53:00
11:53 AM,32.0,24.1,73,30.23,7.0,NNW,13.8,-,0.00,Snow,Light Snow,340,2013-03-02 17:53:00
12:53 PM,32.0,23.0,69,30.22,8.0,NNW,16.1,21.9,0.00,Snow,Light Snow,340,2013-03-02 18:53:00
1:38 PM,32.0,23.0,69,30.20,9.0,NNW,15.0,-,0.00,Snow,Light Snow,330,2013-03-02 19:38:00
1:53 PM,32.0,23.0,69,30.21,9.0,NNW,12.7,-,0.00,,Overcast,330,2013-03-02 19:53:00
2:18 PM,33.8,21.2,60,30.20,10.0,North,12.7,-,N/A,,Overcast,360,2013-03-02 20:18:00
2:53 PM,33.1,21.9,64,30.22,10.0,NNW,12.7,-,0.00,,Overcast,340,2013-03-02 20:53:00
3:53 PM,34.0,21.0,59,30.21,10.0,NW,13.8,24.2,0.00,,Overcast,320,2013-03-02 21:53:00
4:53 PM,33.1,21.0,61,30.22,10.0,NNW,9.2,-,N/A,,Overcast,340,2013-03-02 22:53:00
5:53 PM,32.0,19.9,61,30.23,10.0,NNW,10.4,-,N/A,,Overcast,340,2013-03-02 23:53:00
6:53 PM,32.0,19.0,59,30.24,10.0,NNW,9.2,-,N/A,,Overcast,330,2013-03-03 00:53:00
7:53 PM,32.0,17.1,54,30.24,10.0,NNW,9.2,17.3,N/A,,Overcast,340,2013-03-03 01:53:00
8:53 PM,32.0,18.0,56,30.25,10.0,NW,5.8,-,N/A,,Overcast,320,2013-03-03 02:53:00
9:53 PM,30.0,19.9,66,30.25,10.0,WNW,5.8,-,N/A,,Overcast,300,2013-03-03 03:53:00
10:53 PM,28.4,17.6,64,30.23,10.0,NW,6.9,-,N/A,,Partly Cloudy,320,2013-03-03 04:53:00
11:53 PM,28.0,18.0,66,30.23,10.0,NW,5.8,-,N/A,,Clear,320,2013-03-03 05:53:00